Excelsior, Minnesota
Current Conditions -  °F | °C
As of 8:03 AM on Sunday 21 Dec 2014 (Local Time) from KFCM Reporting Station
Light Rain Light Rain  
Wind Chill: 25°   Ceiling: 400
Heat Index: 34°   Visibility: 3mi
Dew Point: 32°   Wind: 12mph
Humidity: 92%   Direction: 150°SSE
Pressure: 29.87"   Gusts: NA
Location:  44.9°N, 93.57°W
Report Text: KFCM 211403Z 15010KT 3SM -RA BR OVC004 01/00 A2987 RMK AO2 P0000 T00110000
Loading
Personal Weather Stations






























Interactive Weather Map New forecast layout! Learn more

10-Day Weather Forecast

Advertisements
Track Severe Weather on mobile